メインページ
METAR-TAF:

METAR-TAF

空港 :

エル・アルト国際空港

ラパス, ボリビア

緯度: 16-31S, 経度: 068-11W, 海抜: 4058m

現時点の気象観測

当レポートは53分前の11:00(UTC)に作成
の風 3kt
気温 -1°C
湿度 43%
気圧 1037 hPa
視程10km以上

METAR: SLLP 221100Z 01003KT 9999 NSC M01/M12 Q1037

時間: 07:53 (11:53 UTC)

予報

当レポートは1時間33分前の10:20(UTC)に作成
予報は22日の 12時(UTC)から 23日の 12時(UTC)まで有効
北東の風 5kt
視程10km以上
高度1500ftの雲はほとんどない
22日の 15時(UTC)から 22日の 17時(UTC)まで徐々に
西/南西の風 10kt
22日の 19時(UTC)から 22日の 21時(UTC)まで一時的に
西の風 15kt、最大25ktの突風を伴う
22日の 23時(UTC)から 23日の 02時(UTC)まで徐々に
北東の風 5kt

TAF: SLLP 221020Z 2212/2312 05005KT 9999 FEW015 TX17/2220Z TNM05/2310Z BECMG 2215/2217 2217/2220 24010KT TEMPO 2219/2221 27015G25KT BECMG 2223/2302 04005KT

4,000以上の空港の気象観測と天気予報(METAR報とTAF報)

利用可能な観測所は地図上に黄色い丸と赤い丸で示す。

丸の上にカーソルを重ねると観測所名を参照できる。

次にクリックすると気象観測と天気予報を参照できる。

マップの切り替え:黒色「×」印の緑ボタンをクリックして拡大、「-」印の緑ボタンをクリックして縮小、緑色の三角印をクリックして隣りの地図に切り替え


METAR-TAF: